createdAt,value
2023-02-16T00:00:21.623Z,84.76
2023-02-16T00:02:52.485Z,85.01
2023-02-16T00:05:23.019Z,85.11
2023-02-16T00:07:53.586Z,84.89
2023-02-16T00:10:23.918Z,84.76
2023-02-16T00:12:54.189Z,84.73
2023-02-16T00:15:24.342Z,84.87
2023-02-16T00:17:54.884Z,84.99
2023-02-16T00:20:25.690Z,85.05
2023-02-16T00:22:55.814Z,85.39
2023-02-16T00:25:26.038Z,85.21
2023-02-16T00:27:56.580Z,85.35
2023-02-16T00:30:27.010Z,84.99
2023-02-16T00:32:57.567Z,84.96
2023-02-16T00:35:28.073Z,85.31
2023-02-16T00:37:58.821Z,85.28
2023-02-16T00:40:29.725Z,85.31
2023-02-16T00:43:00.195Z,85.35
2023-02-16T00:45:30.783Z,85.48
2023-02-16T00:48:00.922Z,85.35
2023-02-16T00:50:31.662Z,85.50
2023-02-16T00:53:01.808Z,85.34
2023-02-16T00:55:32.406Z,85.30
2023-02-16T00:58:03.180Z,85.49
2023-02-16T01:00:33.791Z,85.56
2023-02-16T01:03:04.617Z,85.39
2023-02-16T01:05:34.699Z,86.04
2023-02-16T01:08:05.644Z,85.49
2023-02-16T01:10:35.696Z,85.42
2023-02-16T01:13:06.359Z,85.59
2023-02-16T01:15:36.692Z,85.19
2023-02-16T01:18:06.785Z,85.20
2023-02-16T01:20:36.894Z,85.66
2023-02-16T01:23:07.166Z,85.60
2023-02-16T01:25:37.748Z,86.97
2023-02-16T01:28:08.493Z,86.24
2023-02-16T01:30:38.863Z,85.90
2023-02-16T01:33:09.540Z,86.69
2023-02-16T01:35:40.051Z,86.61
2023-02-16T01:38:10.299Z,86.50
2023-02-16T01:40:40.696Z,86.84
2023-02-16T01:43:11.024Z,86.97
2023-02-16T01:45:41.888Z,86.86
2023-02-16T01:48:11.958Z,87.36
2023-02-16T01:50:41.960Z,87.36
2023-02-16T01:53:12.662Z,87.97
2023-02-16T01:55:42.787Z,88.00
2023-02-16T01:58:13.624Z,87.78
2023-02-16T02:00:44.447Z,87.42
2023-02-16T02:03:14.854Z,87.23
2023-02-16T02:05:45.112Z,86.92
2023-02-16T02:08:15.102Z,87.28
2023-02-16T02:10:46.027Z,86.90
2023-02-16T02:13:16.074Z,87.23
2023-02-16T02:15:46.283Z,87.03
2023-02-16T02:18:16.318Z,86.93
2023-02-16T02:20:46.345Z,86.96
2023-02-16T02:23:17.076Z,87.28
2023-02-16T02:25:47.598Z,86.83
2023-02-16T02:28:17.673Z,86.80
2023-02-16T02:30:47.988Z,86.51
2023-02-16T02:33:18.565Z,86.72
2023-02-16T02:35:49.104Z,86.48
2023-02-16T02:38:19.213Z,86.92
2023-02-16T02:40:49.571Z,87.39
2023-02-16T02:43:20.173Z,87.21
2023-02-16T02:45:50.827Z,86.89
2023-02-16T02:48:21.755Z,86.85
2023-02-16T02:50:52.154Z,86.50
2023-02-16T02:53:23.024Z,87.10
2023-02-16T02:55:53.707Z,86.99
2023-02-16T02:58:24.051Z,86.92
2023-02-16T03:00:54.355Z,87.16
2023-02-16T03:03:24.815Z,86.76
2023-02-16T03:05:55.339Z,86.75
2023-02-16T03:08:25.461Z,86.62
2023-02-16T03:10:55.908Z,86.73
2023-02-16T03:13:26.469Z,86.91
2023-02-16T03:15:56.853Z,86.80
2023-02-16T03:18:27.055Z,87.05
2023-02-16T03:20:57.751Z,87.28
2023-02-16T03:23:27.914Z,86.77
2023-02-16T03:25:58.384Z,86.75
2023-02-16T03:28:29.124Z,87.14
2023-02-16T03:30:59.494Z,86.59
2023-02-16T03:33:29.730Z,86.65
2023-02-16T03:35:59.703Z,86.38
2023-02-16T03:38:29.846Z,87.51
2023-02-16T03:41:00.571Z,86.96
2023-02-16T03:43:31.267Z,87.39
2023-02-16T03:46:01.517Z,87.08
2023-02-16T03:48:31.977Z,87.75
2023-02-16T03:51:02.847Z,87.41
2023-02-16T03:53:33.069Z,87.79
2023-02-16T03:56:03.052Z,87.79
2023-02-16T03:58:33.872Z,87.70
2023-02-16T04:01:04.517Z,87.95
2023-02-16T04:03:34.678Z,87.57
2023-02-16T04:06:05.490Z,88.09
2023-02-16T04:08:36.331Z,87.78
2023-02-16T04:11:07.034Z,87.68
2023-02-16T04:13:37.709Z,87.86
2023-02-16T04:16:07.918Z,87.91
2023-02-16T04:18:38.761Z,88.58
2023-02-16T04:21:08.785Z,95.26
2023-02-16T04:23:38.807Z,91.96
2023-02-16T04:26:09.325Z,91.45
2023-02-16T04:28:40.159Z,91.09
2023-02-16T04:31:10.962Z,92.27
2023-02-16T04:33:41.368Z,92.46
2023-02-16T04:36:11.954Z,92.84
2023-02-16T04:38:42.276Z,93.45
2023-02-16T04:41:12.912Z,93.78
2023-02-16T04:43:43.593Z,94.41
2023-02-16T04:46:13.812Z,93.57
2023-02-16T04:48:44.121Z,93.70
2023-02-16T04:51:14.201Z,93.39
2023-02-16T04:53:44.950Z,93.99
2023-02-16T04:56:14.945Z,94.19
2023-02-16T04:58:45.576Z,93.45
2023-02-16T05:01:16.310Z,93.95
2023-02-16T05:03:47.056Z,94.32
2023-02-16T05:06:17.719Z,92.94
2023-02-16T05:08:48.336Z,92.78
2023-02-16T05:11:19.057Z,93.15
2023-02-16T05:13:49.689Z,91.88
2023-02-16T05:16:20.089Z,92.21
2023-02-16T05:18:50.819Z,91.75
2023-02-16T05:21:21.132Z,92.15
2023-02-16T05:23:51.211Z,90.93
2023-02-16T05:26:22.005Z,91.69
2023-02-16T05:28:52.361Z,90.78
2023-02-16T05:31:23.010Z,91.06
2023-02-16T05:33:52.939Z,90.52
2023-02-16T05:36:23.273Z,90.86
2023-02-16T05:38:53.410Z,90.69
2023-02-16T05:41:24.101Z,90.18
2023-02-16T05:43:54.432Z,90.36
2023-02-16T05:46:24.564Z,90.16
2023-02-16T05:48:54.616Z,91.26
2023-02-16T05:51:24.816Z,90.71
2023-02-16T05:53:55.214Z,91.79
2023-02-16T05:56:25.667Z,91.17
2023-02-16T05:58:56.158Z,90.65
2023-02-16T06:01:27.098Z,90.10
2023-02-16T06:03:57.819Z,90.17
2023-02-16T06:06:28.483Z,90.56
2023-02-16T06:08:58.520Z,91.14
2023-02-16T06:11:28.723Z,90.71
2023-02-16T06:13:59.680Z,90.35
2023-02-16T06:16:30.318Z,89.78
2023-02-16T06:19:01.158Z,90.23
2023-02-16T06:21:31.501Z,90.06
2023-02-16T06:24:02.373Z,90.47
2023-02-16T06:26:32.417Z,90.07
2023-02-16T06:29:02.940Z,90.23
2023-02-16T06:31:35.190Z,90.02
2023-02-16T06:34:03.437Z,90.90
2023-02-16T06:36:33.520Z,90.41
2023-02-16T06:39:03.890Z,89.82
2023-02-16T06:41:34.770Z,89.50
2023-02-16T06:44:05.691Z,90.35
2023-02-16T06:46:35.789Z,89.85
2023-02-16T06:49:06.599Z,89.37
2023-02-16T06:51:36.624Z,89.25
2023-02-16T06:54:07.068Z,89.18
2023-02-16T06:56:38.179Z,89.89
2023-02-16T06:59:08.532Z,89.71
2023-02-16T07:01:38.927Z,89.47
2023-02-16T07:04:09.290Z,89.44
2023-02-16T07:06:40.024Z,90.51
2023-02-16T07:09:12.430Z,91.10
2023-02-16T07:11:41.711Z,89.96
2023-02-16T07:14:12.311Z,89.69
2023-02-16T07:16:42.929Z,90.12
2023-02-16T07:19:13.592Z,90.06
2023-02-16T07:21:44.323Z,89.77
2023-02-16T07:24:14.548Z,89.42
2023-02-16T07:26:44.583Z,89.62
2023-02-16T07:29:14.693Z,89.77
2023-02-16T07:31:44.780Z,88.79
2023-02-16T07:34:15.094Z,88.94
2023-02-16T07:36:45.940Z,89.22
2023-02-16T07:39:15.999Z,89.27
2023-02-16T07:41:46.293Z,89.46
2023-02-16T07:44:17.148Z,89.76
2023-02-16T07:46:47.802Z,90.07
2023-02-16T07:49:18.140Z,90.28
2023-02-16T07:51:48.727Z,89.76
2023-02-16T07:54:18.872Z,89.78
2023-02-16T07:56:49.227Z,89.85
2023-02-16T07:59:19.407Z,89.82
2023-02-16T08:01:49.447Z,89.88
2023-02-16T08:04:19.801Z,89.09
2023-02-16T08:06:49.920Z,89.22
2023-02-16T08:09:20.369Z,90.50
2023-02-16T08:11:50.716Z,90.08
2023-02-16T08:14:21.500Z,90.92
2023-02-16T08:16:55.449Z,90.48
2023-02-16T08:19:22.704Z,89.76
2023-02-16T08:21:52.951Z,89.81
2023-02-16T08:24:23.254Z,89.62
2023-02-16T08:26:53.949Z,89.42
2023-02-16T08:29:24.332Z,89.07
2023-02-16T08:31:54.538Z,88.89
2023-02-16T08:34:24.791Z,88.63
2023-02-16T08:36:54.942Z,90.23
2023-02-16T08:39:25.219Z,89.77
2023-02-16T08:41:55.700Z,89.73
2023-02-16T08:44:28.864Z,89.72
2023-02-16T08:46:56.287Z,89.15
2023-02-16T08:49:27.152Z,89.65
2023-02-16T08:51:57.333Z,89.67
2023-02-16T08:54:28.074Z,89.36
2023-02-16T08:56:58.205Z,90.00
2023-02-16T08:59:29.187Z,90.05
2023-02-16T09:01:58.949Z,89.74
2023-02-16T09:04:29.682Z,90.08
2023-02-16T09:06:59.872Z,90.07
2023-02-16T09:09:33.512Z,89.25
2023-02-16T09:12:00.932Z,89.04
2023-02-16T09:14:31.562Z,89.21
2023-02-16T09:17:02.214Z,89.93
2023-02-16T09:19:32.206Z,89.83
2023-02-16T09:22:02.458Z,90.22
2023-02-16T09:24:32.805Z,89.94
2023-02-16T09:27:03.189Z,89.63
2023-02-16T09:29:36.719Z,90.39
2023-02-16T09:32:03.660Z,90.25
2023-02-16T09:34:33.623Z,89.62
2023-02-16T09:37:04.096Z,89.85
2023-02-16T09:39:34.076Z,90.31
2023-02-16T09:42:04.397Z,89.45
2023-02-16T09:44:35.287Z,90.25
2023-02-16T09:47:05.902Z,89.38
2023-02-16T09:49:35.987Z,90.11
2023-02-16T09:52:06.792Z,90.03
2023-02-16T09:54:37.079Z,89.69
2023-02-16T09:57:07.424Z,89.73
2023-02-16T09:59:37.504Z,89.50
2023-02-16T10:02:08.127Z,89.28
2023-02-16T10:04:38.850Z,89.16
2023-02-16T10:07:09.332Z,88.92
2023-02-16T10:09:39.427Z,88.37
2023-02-16T10:12:09.878Z,88.48
2023-02-16T10:14:39.883Z,89.24
2023-02-16T10:17:10.020Z,88.49
2023-02-16T10:19:40.762Z,88.67
2023-02-16T10:22:11.133Z,89.66
2023-02-16T10:24:41.885Z,94.37
2023-02-16T10:27:12.552Z,91.02
2023-02-16T10:29:43.275Z,89.95
2023-02-16T10:32:13.998Z,89.05
2023-02-16T10:34:44.744Z,88.56
2023-02-16T10:37:15.388Z,89.13
2023-02-16T10:39:45.658Z,89.00
2023-02-16T10:42:15.856Z,88.87
2023-02-16T10:44:45.967Z,87.92
2023-02-16T10:47:21.706Z,88.45
2023-02-16T10:49:47.019Z,88.96
2023-02-16T10:52:17.876Z,88.21
2023-02-16T10:54:48.763Z,88.71
2023-02-16T10:57:18.953Z,89.13
2023-02-16T10:59:49.848Z,90.62
2023-02-16T11:02:20.672Z,90.24
2023-02-16T11:04:51.056Z,90.43
2023-02-16T11:07:21.548Z,89.54
2023-02-16T11:09:51.974Z,91.02
2023-02-16T11:12:22.622Z,90.38
2023-02-16T11:14:53.336Z,91.21
2023-02-16T11:17:23.728Z,90.89
2023-02-16T11:19:53.782Z,91.18
2023-02-16T11:22:23.859Z,91.58
2023-02-16T11:24:54.658Z,91.12
2023-02-16T11:27:25.210Z,91.33
2023-02-16T11:29:55.927Z,90.72
2023-02-16T11:32:26.601Z,90.96
2023-02-16T11:34:56.797Z,90.56
2023-02-16T11:37:27.148Z,90.44
2023-02-16T11:39:57.309Z,91.55
2023-02-16T11:42:27.278Z,91.69
2023-02-16T11:44:57.526Z,93.01
2023-02-16T11:47:27.944Z,94.41
2023-02-16T11:49:57.946Z,93.45
2023-02-16T11:52:28.752Z,92.90
2023-02-16T11:54:59.041Z,92.68
2023-02-16T11:57:29.356Z,91.99
2023-02-16T11:59:59.687Z,92.90
2023-02-16T12:02:30.118Z,92.01
2023-02-16T12:05:00.541Z,92.06
2023-02-16T12:07:31.170Z,91.32
2023-02-16T12:10:02.034Z,91.69
2023-02-16T12:12:32.703Z,92.14
2023-02-16T12:15:03.567Z,91.06
2023-02-16T12:17:34.108Z,91.88
2023-02-16T12:20:04.975Z,91.08
2023-02-16T12:22:35.357Z,91.54
2023-02-16T12:25:05.819Z,91.02
2023-02-16T12:27:35.912Z,91.10
2023-02-16T12:30:06.214Z,92.00
2023-02-16T12:32:36.671Z,92.69
2023-02-16T12:35:07.092Z,91.74
2023-02-16T12:37:37.474Z,92.31
2023-02-16T12:40:07.677Z,92.50
2023-02-16T12:42:37.876Z,92.47
2023-02-16T12:45:08.431Z,92.44
2023-02-16T12:47:38.546Z,95.42
2023-02-16T12:50:09.011Z,93.65
2023-02-16T12:52:39.819Z,94.39
2023-02-16T12:55:10.004Z,94.06
2023-02-16T12:57:40.254Z,96.23
2023-02-16T13:00:10.942Z,95.64
2023-02-16T13:02:41.373Z,94.93
2023-02-16T13:05:12.190Z,96.93
2023-02-16T13:07:43.078Z,95.62
2023-02-16T13:10:13.286Z,96.85
2023-02-16T13:12:43.601Z,96.99
2023-02-16T13:15:13.612Z,100.00
2023-02-16T13:17:44.150Z,99.35
2023-02-16T13:20:14.594Z,100.00
2023-02-16T13:22:44.702Z,98.17
2023-02-16T13:25:15.170Z,97.88
2023-02-16T13:27:45.919Z,97.24
2023-02-16T13:30:16.028Z,97.42
2023-02-16T13:32:46.861Z,97.78
2023-02-16T13:35:17.479Z,98.87
2023-02-16T13:37:47.736Z,96.96
2023-02-16T13:40:18.128Z,100.00
2023-02-16T13:42:48.936Z,97.93
2023-02-16T13:45:19.434Z,97.06
2023-02-16T13:47:49.900Z,96.89
2023-02-16T13:50:20.615Z,98.48
2023-02-16T13:52:51.160Z,99.73
2023-02-16T13:55:21.325Z,98.35
2023-02-16T13:57:53.116Z,97.87
2023-02-16T14:00:22.692Z,99.08
2023-02-16T14:02:53.023Z,97.43
2023-02-16T14:05:23.536Z,98.00
2023-02-16T14:07:54.054Z,98.59
2023-02-16T14:10:24.591Z,99.43
2023-02-16T14:12:55.365Z,99.37
2023-02-16T14:15:25.972Z,97.38
2023-02-16T14:17:56.442Z,98.35
2023-02-16T14:20:27.112Z,98.69
2023-02-16T14:22:57.570Z,99.00
2023-02-16T14:25:28.221Z,98.66
2023-02-16T14:27:58.464Z,98.49
2023-02-16T14:30:28.566Z,99.09
2023-02-16T14:32:59.035Z,98.25
2023-02-16T14:35:29.108Z,98.22
2023-02-16T14:37:59.633Z,99.29
2023-02-16T14:40:29.970Z,98.95
2023-02-16T14:43:00.174Z,98.56
2023-02-16T14:45:30.190Z,97.93
2023-02-16T14:48:00.458Z,99.10
2023-02-16T14:50:31.278Z,98.94
2023-02-16T14:53:01.629Z,98.19
2023-02-16T14:55:32.391Z,97.33
2023-02-16T14:58:02.984Z,97.20
2023-02-16T15:00:33.103Z,98.09
2023-02-16T15:03:03.768Z,98.47
2023-02-16T15:05:33.906Z,98.73
2023-02-16T15:08:04.490Z,98.34
2023-02-16T15:10:34.837Z,97.80
2023-02-16T15:13:05.309Z,97.98
2023-02-16T15:15:35.961Z,99.23
2023-02-16T15:18:06.807Z,97.72
2023-02-16T15:20:36.942Z,98.96
2023-02-16T15:23:07.491Z,98.24
2023-02-16T15:25:37.919Z,98.57
2023-02-16T15:28:08.597Z,98.20
2023-02-16T15:30:39.355Z,97.98
2023-02-16T15:33:09.968Z,98.27
2023-02-16T15:35:40.569Z,97.70
2023-02-16T15:38:10.617Z,97.20
2023-02-16T15:40:40.724Z,97.95
2023-02-16T15:43:11.387Z,98.76
2023-02-16T15:45:41.584Z,97.78
2023-02-16T15:48:12.317Z,97.73
2023-02-16T15:50:43.189Z,96.79
2023-02-16T15:53:13.413Z,98.12
2023-02-16T15:55:44.344Z,98.28
2023-02-16T15:58:14.863Z,97.59
2023-02-16T16:00:45.492Z,98.38
2023-02-16T16:03:16.331Z,98.57
2023-02-16T16:05:46.526Z,98.19
2023-02-16T16:08:16.994Z,96.35
2023-02-16T16:10:48.032Z,96.79
2023-02-16T16:13:18.575Z,97.26
2023-02-16T16:15:48.956Z,96.17
2023-02-16T16:18:19.282Z,96.25
2023-02-16T16:20:50.105Z,97.87
2023-02-16T16:23:20.888Z,97.50
2023-02-16T16:25:51.575Z,98.01
2023-02-16T16:28:22.177Z,97.11
2023-02-16T16:30:52.567Z,98.46
2023-02-16T16:33:22.784Z,98.26
2023-02-16T16:35:53.401Z,97.67
2023-02-16T16:38:24.237Z,98.91
2023-02-16T16:40:55.036Z,98.66
2023-02-16T16:43:25.871Z,97.65
2023-02-16T16:45:56.539Z,96.65
2023-02-16T16:48:27.181Z,97.66
2023-02-16T16:50:57.070Z,99.34
2023-02-16T16:53:27.356Z,100.00
2023-02-16T16:55:57.699Z,99.78
2023-02-16T16:58:28.201Z,100.00
2023-02-16T17:00:58.400Z,99.38
2023-02-16T17:03:30.527Z,99.61
2023-02-16T17:05:59.205Z,100.00
2023-02-16T17:08:29.370Z,100.00
2023-02-16T17:10:59.421Z,100.00
2023-02-16T17:13:29.761Z,100.00
2023-02-16T17:16:00.612Z,100.00
2023-02-16T17:18:30.617Z,100.00
2023-02-16T17:21:00.948Z,100.00
2023-02-16T17:23:31.750Z,100.00
2023-02-16T17:26:01.766Z,100.00
2023-02-16T17:28:32.293Z,100.00
2023-02-16T17:31:02.494Z,100.00
2023-02-16T17:33:32.717Z,100.00
2023-02-16T17:36:03.955Z,100.00
2023-02-16T17:38:34.387Z,100.00
2023-02-16T17:41:04.907Z,99.35
2023-02-16T17:43:35.445Z,98.90
2023-02-16T17:46:06.231Z,100.00
2023-02-16T17:48:36.171Z,99.56
2023-02-16T17:51:06.939Z,99.66
2023-02-16T17:53:37.779Z,100.00
2023-02-16T17:56:07.928Z,100.00
2023-02-16T17:58:38.353Z,100.00
2023-02-16T18:01:08.952Z,100.00
2023-02-16T18:03:39.073Z,100.00
2023-02-16T18:06:09.396Z,100.00
2023-02-16T18:08:39.783Z,100.00
2023-02-16T18:11:10.451Z,100.00
2023-02-16T18:13:41.209Z,100.00
2023-02-16T18:16:12.142Z,100.00
2023-02-16T18:18:42.447Z,100.00
2023-02-16T18:21:12.980Z,100.00
2023-02-16T18:23:43.377Z,99.65
2023-02-16T18:26:13.687Z,99.43
2023-02-16T18:28:44.469Z,100.00
2023-02-16T18:31:14.901Z,98.67
2023-02-16T18:33:45.080Z,99.45
2023-02-16T18:36:15.230Z,100.00
2023-02-16T18:38:45.255Z,100.00
2023-02-16T18:41:15.994Z,99.78
2023-02-16T18:43:46.492Z,100.00
2023-02-16T18:46:16.592Z,99.32
2023-02-16T18:48:47.448Z,99.43
2023-02-16T18:51:18.164Z,99.26
2023-02-16T18:53:48.403Z,99.01
2023-02-16T18:56:19.296Z,98.82
2023-02-16T18:58:49.246Z,99.05
2023-02-16T19:01:19.764Z,98.97
2023-02-16T19:03:50.065Z,99.83
2023-02-16T19:06:20.468Z,99.19
2023-02-16T19:08:50.569Z,99.38
2023-02-16T19:11:20.938Z,98.51
2023-02-16T19:13:51.649Z,99.26
2023-02-16T19:16:21.871Z,98.64
2023-02-16T19:18:51.940Z,99.04
2023-02-16T19:21:22.817Z,99.15
2023-02-16T19:23:53.577Z,99.09
2023-02-16T19:26:24.183Z,99.68
2023-02-16T19:28:54.911Z,100.00
2023-02-16T19:31:25.131Z,99.01
2023-02-16T19:33:55.504Z,100.00
2023-02-16T19:36:25.496Z,99.34
2023-02-16T19:38:55.807Z,99.35
2023-02-16T19:41:26.677Z,98.60
2023-02-16T19:43:57.407Z,99.96
2023-02-16T19:46:27.949Z,99.15
2023-02-16T19:48:58.077Z,98.78
2023-02-16T19:51:28.344Z,98.85
2023-02-16T19:53:58.454Z,98.91
2023-02-16T19:56:29.326Z,98.69
2023-02-16T19:58:59.700Z,98.82
2023-02-16T20:01:30.290Z,98.68
2023-02-16T20:04:00.717Z,98.62
2023-02-16T20:06:31.210Z,98.93
2023-02-16T20:09:01.752Z,98.87
2023-02-16T20:11:32.331Z,99.39
2023-02-16T20:14:02.397Z,100.00
2023-02-16T20:16:32.568Z,99.00
2023-02-16T20:19:03.235Z,100.00
2023-02-16T20:21:33.390Z,99.35
2023-02-16T20:24:03.905Z,99.12
2023-02-16T20:26:34.735Z,99.87
2023-02-16T20:29:05.111Z,99.26
2023-02-16T20:31:35.791Z,100.00
2023-02-16T20:34:06.141Z,99.67
2023-02-16T20:36:36.915Z,100.00
2023-02-16T20:39:07.575Z,99.56
2023-02-16T20:41:38.444Z,98.89
2023-02-16T20:44:08.916Z,100.00
2023-02-16T20:46:39.342Z,100.00
2023-02-16T20:49:09.587Z,100.00
2023-02-16T20:51:40.000Z,100.00
2023-02-16T20:54:10.015Z,100.00
2023-02-16T20:56:40.485Z,100.00
2023-02-16T20:59:10.540Z,100.00
2023-02-16T21:01:40.807Z,99.95
2023-02-16T21:04:10.828Z,99.98
2023-02-16T21:06:41.487Z,100.00
2023-02-16T21:09:11.611Z,100.00
2023-02-16T21:11:42.002Z,99.77
2023-02-16T21:14:12.038Z,100.00
2023-02-16T21:16:42.650Z,100.00
2023-02-16T21:19:22.673Z,100.00
2023-02-16T21:21:42.734Z,100.00
2023-02-16T21:24:13.423Z,100.00
2023-02-16T21:26:44.101Z,100.00
2023-02-16T21:29:14.312Z,100.00
2023-02-16T21:31:45.200Z,100.00
2023-02-16T21:34:16.025Z,100.00
2023-02-16T21:36:46.697Z,100.00
2023-02-16T21:39:16.922Z,100.00
2023-02-16T21:41:47.450Z,100.00
2023-02-16T21:44:18.160Z,100.00
2023-02-16T21:46:48.715Z,100.00
2023-02-16T21:49:19.332Z,100.00
2023-02-16T21:51:49.659Z,100.00
2023-02-16T21:54:19.970Z,100.00
2023-02-16T21:56:50.471Z,100.00
2023-02-16T21:59:21.061Z,100.00
2023-02-16T22:01:51.439Z,100.00
2023-02-16T22:04:22.175Z,100.00
2023-02-16T22:06:52.531Z,100.00
2023-02-16T22:09:23.175Z,100.00
2023-02-16T22:11:54.065Z,100.00
2023-02-16T22:14:24.349Z,100.00
2023-02-16T22:16:55.057Z,100.00
2023-02-16T22:19:25.701Z,100.00
2023-02-16T22:21:56.062Z,100.00
2023-02-16T22:24:26.789Z,100.00
2023-02-16T22:26:57.299Z,100.00
2023-02-16T22:29:27.653Z,100.00
2023-02-16T22:31:58.160Z,100.00
2023-02-16T22:34:28.961Z,100.00
2023-02-16T22:36:59.814Z,100.00
2023-02-16T22:39:31.489Z,100.00
2023-02-16T22:42:00.286Z,100.00
2023-02-16T22:44:30.490Z,100.00
2023-02-16T22:47:01.218Z,100.00
2023-02-16T22:49:31.957Z,100.00
2023-02-16T22:52:02.625Z,100.00
2023-02-16T22:54:32.977Z,100.00
2023-02-16T22:57:03.790Z,100.00
2023-02-16T22:59:33.915Z,100.00
2023-02-16T23:02:03.932Z,100.00
2023-02-16T23:04:34.248Z,100.00
2023-02-16T23:07:04.611Z,100.00
2023-02-16T23:09:35.181Z,100.00
2023-02-16T23:12:05.242Z,100.00
2023-02-16T23:14:35.356Z,100.00
2023-02-16T23:17:05.767Z,100.00
2023-02-16T23:19:36.461Z,100.00
2023-02-16T23:22:06.841Z,100.00
2023-02-16T23:24:37.474Z,100.00
2023-02-16T23:27:07.746Z,100.00
2023-02-16T23:29:38.350Z,100.00
2023-02-16T23:32:08.909Z,100.00
2023-02-16T23:34:39.591Z,100.00
2023-02-16T23:37:10.147Z,100.00
2023-02-16T23:39:40.775Z,100.00
2023-02-16T23:42:11.458Z,100.00
2023-02-16T23:44:41.956Z,100.00
2023-02-16T23:47:12.100Z,100.00
2023-02-16T23:49:42.247Z,100.00
2023-02-16T23:52:12.389Z,100.00
2023-02-16T23:54:43.301Z,100.00
2023-02-16T23:57:13.693Z,100.00
2023-02-16T23:59:44.077Z,100.00
